Time,TemperatureF,DewpointF,PressureIn,WindDirection,WindDirectionDegrees,WindSpeedMPH,WindSpeedGustMPH,Humidity,HourlyPrecipIn,Conditions,Clouds,dailyrainin,SoftwareType,DateUTC
2013-07-24 00:01:00,73.0,65.0,29.74,WSW,253,4.0,8.0,76,0.00,,CLR,0.00,VWS V14.01,2013-07-24 04:01:00,
2013-07-24 00:06:00,73.1,65.5,29.74,WSW,239,0.0,8.0,77,0.00,,CLR,0.00,VWS V14.01,2013-07-24 04:06:00,
2013-07-24 00:11:00,73.1,65.5,29.74,SSW,205,4.0,8.0,77,0.00,,CLR,0.00,VWS V14.01,2013-07-24 04:11:00,
2013-07-24 00:17:00,73.0,65.4,29.74,WSW,237,0.0,8.0,77,0.00,,CLR,0.00,VWS V14.01,2013-07-24 04:17:00,
2013-07-24 00:22:00,73.0,65.4,29.74,West,264,0.0,8.0,77,0.00,,CLR,0.00,VWS V14.01,2013-07-24 04:22:00,
2013-07-24 00:27:00,72.9,65.3,29.74,WSW,247,3.0,8.0,77,0.00,,CLR,0.00,VWS V14.01,2013-07-24 04:27:00,
2013-07-24 00:32:00,72.8,65.6,29.74,WSW,251,0.0,2.0,78,0.00,,CLR,0.00,VWS V14.01,2013-07-24 04:32:00,
2013-07-24 00:37:00,72.6,65.3,29.74,WSW,239,2.0,6.0,78,0.00,,CLR,0.00,VWS V14.01,2013-07-24 04:37:00,
2013-07-24 00:42:00,72.4,65.5,29.74,West,271,0.0,6.0,79,0.00,,CLR,0.00,VWS V14.01,2013-07-24 04:42:00,
2013-07-24 00:47:00,72.1,65.2,29.74,SW,231,0.0,6.0,79,0.00,,CLR,0.00,VWS V14.01,2013-07-24 04:47:00,
2013-07-24 00:52:00,71.9,65.0,29.74,WSW,251,0.0,6.0,79,0.00,,CLR,0.00,VWS V14.01,2013-07-24 04:52:00,
2013-07-24 00:57:00,71.7,65.2,29.74,WSW,249,0.0,6.0,80,0.00,,CLR,0.00,VWS V14.01,2013-07-24 04:57:00,
2013-07-24 01:02:00,71.4,64.9,29.75,WSW,253,0.0,2.0,80,0.00,,CLR,0.00,VWS V14.01,2013-07-24 05:02:00,
2013-07-24 01:07:00,71.2,65.1,29.75,WSW,253,0.0,2.0,81,0.00,,CLR,0.00,VWS V14.01,2013-07-24 05:07:00,
2013-07-24 01:12:00,71.1,65.0,29.74,WSW,242,0.0,2.0,81,0.00,,CLR,0.00,VWS V14.01,2013-07-24 05:12:00,
2013-07-24 01:17:00,70.8,64.7,29.75,WSW,242,0.0,2.0,81,0.00,,CLR,0.00,VWS V14.01,2013-07-24 05:17:00,
2013-07-24 01:22:00,70.6,64.8,29.75,WSW,242,0.0,2.0,82,0.00,,CLR,0.00,VWS V14.01,2013-07-24 05:22:00,
2013-07-24 01:27:00,70.5,64.8,29.75,WSW,249,0.0,2.0,82,0.00,,CLR,0.00,VWS V14.01,2013-07-24 05:27:00,
2013-07-24 01:32:00,70.3,64.9,29.75,WSW,246,0.0,0.0,83,0.00,,CLR,0.00,VWS V14.01,2013-07-24 05:32:00,
2013-07-24 01:37:00,70.1,65.1,29.75,WSW,243,0.0,1.0,84,0.00,,CLR,0.00,VWS V14.01,2013-07-24 05:37:00,
2013-07-24 01:42:00,69.8,64.8,29.75,WSW,241,0.0,1.0,84,0.00,,CLR,0.00,VWS V14.01,2013-07-24 05:42:00,
2013-07-24 01:47:00,69.5,64.8,29.74,WSW,241,0.0,1.0,85,0.00,,CLR,0.00,VWS V14.01,2013-07-24 05:47:00,
2013-07-24 01:52:00,69.2,64.5,29.74,WSW,248,0.0,1.0,85,0.00,,CLR,0.00,VWS V14.01,2013-07-24 05:52:00,
2013-07-24 01:57:00,69.0,64.3,29.74,WSW,247,0.0,1.0,85,0.00,,CLR,0.00,VWS V14.01,2013-07-24 05:57:00,
2013-07-24 02:02:00,68.8,64.1,29.74,WSW,245,0.0,1.0,85,0.00,,CLR,0.00,VWS V14.01,2013-07-24 06:02:00,
2013-07-24 02:07:00,68.8,64.4,29.74,WSW,248,0.0,1.0,86,0.00,,CLR,0.00,VWS V14.01,2013-07-24 06:07:00,
2013-07-24 02:12:00,68.6,64.2,29.74,WSW,246,0.0,1.0,86,0.00,,CLR,0.00,VWS V14.01,2013-07-24 06:12:00,
2013-07-24 02:17:00,68.4,64.4,29.74,WSW,245,0.0,1.0,87,0.00,,CLR,0.00,VWS V14.01,2013-07-24 06:17:00,
2013-07-24 02:22:00,68.1,64.1,29.74,WSW,238,0.0,1.0,87,0.00,,CLR,0.00,VWS V14.01,2013-07-24 06:22:00,
2013-07-24 02:27:00,67.8,64.1,29.74,WSW,241,0.0,1.0,88,0.00,,CLR,0.00,VWS V14.01,2013-07-24 06:27:00,
2013-07-24 02:32:00,67.6,63.9,29.74,WSW,240,0.0,0.0,88,0.00,,CLR,0.00,VWS V14.01,2013-07-24 06:32:00,
2013-07-24 02:37:00,67.3,64.0,29.74,West,259,0.0,0.0,89,0.00,,CLR,0.00,VWS V14.01,2013-07-24 06:37:00,
2013-07-24 02:42:00,67.1,64.4,29.75,West,259,0.0,0.0,91,0.00,,CLR,0.00,VWS V14.01,2013-07-24 06:42:00,
2013-07-24 02:47:00,66.8,64.1,29.75,West,259,0.0,0.0,91,0.00,,CLR,0.00,VWS V14.01,2013-07-24 06:47:00,
2013-07-24 02:52:00,66.6,63.9,29.75,West,259,0.0,0.0,91,0.00,,CLR,0.00,VWS V14.01,2013-07-24 06:52:00,
2013-07-24 02:57:00,66.4,63.7,29.75,West,259,0.0,0.0,91,0.00,,CLR,0.00,VWS V14.01,2013-07-24 06:57:00,
2013-07-24 03:02:00,66.2,63.8,29.75,West,259,0.0,0.0,92,0.00,,OVC047,0.00,VWS V14.01,2013-07-24 07:02:00,
2013-07-24 03:07:00,66.0,63.6,29.75,West,259,0.0,0.0,92,0.00,,OVC047,0.00,VWS V14.01,2013-07-24 07:07:00,
2013-07-24 03:12:00,65.9,63.5,29.75,West,259,0.0,0.0,92,0.00,,OVC047,0.00,VWS V14.01,2013-07-24 07:12:00,
2013-07-24 03:17:00,65.8,63.4,29.74,West,259,0.0,0.0,92,0.00,,OVC047,0.00,VWS V14.01,2013-07-24 07:17:00,
2013-07-24 03:22:00,65.7,63.3,29.74,West,259,0.0,0.0,92,0.00,,OVC047,0.00,VWS V14.01,2013-07-24 07:22:00,
2013-07-24 03:27:00,65.6,63.2,29.74,West,259,0.0,0.0,92,0.00,,OVC047,0.00,VWS V14.01,2013-07-24 07:27:00,
2013-07-24 03:32:00,65.6,63.5,29.74,West,259,0.0,0.0,93,0.00,,OVC047,0.00,VWS V14.01,2013-07-24 07:32:00,
2013-07-24 03:37:00,65.5,63.1,29.74,West,259,0.0,0.0,92,0.00,,OVC047,0.00,VWS V14.01,2013-07-24 07:37:00,
2013-07-24 03:42:00,65.4,63.0,29.74,West,259,0.0,0.0,92,0.00,,OVC047,0.00,VWS V14.01,2013-07-24 07:42:00,
2013-07-24 03:47:00,65.4,63.3,29.74,West,259,0.0,0.0,93,0.00,,OVC047,0.00,VWS V14.01,2013-07-24 07:47:00,
2013-07-24 03:52:00,65.4,63.6,29.74,West,259,0.0,0.0,94,0.00,,OVC047,0.00,VWS V14.01,2013-07-24 07:52:00,
2013-07-24 03:57:00,65.3,63.5,29.74,West,259,0.0,0.0,94,0.00,,OVC047,0.00,VWS V14.01,2013-07-24 07:57:00,
2013-07-24 04:02:00,65.2,63.4,29.74,West,259,0.0,0.0,94,0.00,,BKN047,0.00,VWS V14.01,2013-07-24 08:02:00,
2013-07-24 04:07:00,65.1,63.3,29.74,West,259,0.0,0.0,94,0.00,,BKN047,0.00,VWS V14.01,2013-07-24 08:07:00,
2013-07-24 04:12:00,64.9,63.1,29.74,West,259,0.0,0.0,94,0.00,,BKN047,0.00,VWS V14.01,2013-07-24 08:12:00,
2013-07-24 04:18:00,64.8,63.3,29.74,West,259,0.0,0.0,95,0.00,,BKN047,0.00,VWS V14.01,2013-07-24 08:18:00,
2013-07-24 04:23:00,64.7,62.9,29.74,West,259,0.0,0.0,94,0.00,,BKN047,0.00,VWS V14.01,2013-07-24 08:23:00,
2013-07-24 04:28:00,64.6,63.1,29.74,West,259,0.0,0.0,95,0.00,,BKN047,0.00,VWS V14.01,2013-07-24 08:28:00,
2013-07-24 04:33:00,64.5,63.0,29.75,West,259,0.0,0.0,95,0.00,,BKN047,0.00,VWS V14.01,2013-07-24 08:33:00,
2013-07-24 04:38:00,64.5,63.3,29.75,West,259,0.0,0.0,96,0.00,,BKN047,0.00,VWS V14.01,2013-07-24 08:38:00,
2013-07-24 04:43:00,64.4,63.2,29.75,West,259,0.0,0.0,96,0.00,,BKN047,0.00,VWS V14.01,2013-07-24 08:43:00,
2013-07-24 04:48:00,64.4,63.2,29.75,West,259,0.0,0.0,96,0.00,,BKN047,0.00,VWS V14.01,2013-07-24 08:48:00,
2013-07-24 04:53:00,64.4,63.2,29.75,West,259,0.0,0.0,96,0.00,,BKN047,0.00,VWS V14.01,2013-07-24 08:53:00,
2013-07-24 04:58:00,64.5,63.3,29.75,West,259,0.0,0.0,96,0.00,,BKN047,0.00,VWS V14.01,2013-07-24 08:58:00,
2013-07-24 05:03:00,64.6,63.4,29.75,West,259,0.0,0.0,96,0.00,,BKN055,0.00,VWS V14.01,2013-07-24 09:03:00,
2013-07-24 05:08:00,64.7,63.8,29.75,West,259,0.0,0.0,97,0.00,,BKN055,0.00,VWS V14.01,2013-07-24 09:08:00,
2013-07-24 05:13:00,64.8,63.9,29.75,West,259,0.0,0.0,97,0.00,,BKN055,0.00,VWS V14.01,2013-07-24 09:13:00,
2013-07-24 05:18:00,64.9,64.0,29.75,West,259,0.0,0.0,97,0.00,,BKN055,0.00,VWS V14.01,2013-07-24 09:18:00,
2013-07-24 05:23:00,65.1,64.2,29.75,West,259,0.0,0.0,97,0.00,,BKN055,0.00,VWS V14.01,2013-07-24 09:23:00,
2013-07-24 05:28:00,65.2,64.3,29.75,West,259,0.0,0.0,97,0.00,,BKN055,0.00,VWS V14.01,2013-07-24 09:28:00,
2013-07-24 05:33:00,65.4,64.5,29.76,West,259,0.0,0.0,97,0.00,,BKN055,0.00,VWS V14.01,2013-07-24 09:33:00,
2013-07-24 05:38:00,65.5,64.6,29.76,West,259,0.0,0.0,97,0.00,,BKN055,0.00,VWS V14.01,2013-07-24 09:38:00,
2013-07-24 05:43:00,65.7,64.8,29.76,West,259,0.0,0.0,97,0.00,,BKN055,0.00,VWS V14.01,2013-07-24 09:43:00,
2013-07-24 05:48:00,65.8,64.9,29.76,West,259,0.0,0.0,97,0.00,,BKN055,0.00,VWS V14.01,2013-07-24 09:48:00,
2013-07-24 05:53:00,66.0,65.1,29.76,West,259,0.0,0.0,97,0.00,,BKN055,0.00,VWS V14.01,2013-07-24 09:53:00,
2013-07-24 05:58:00,66.1,65.2,29.76,West,262,0.0,1.0,97,0.00,,BKN055,0.00,VWS V14.01,2013-07-24 09:58:00,
2013-07-24 06:03:00,66.2,65.3,29.76,West,266,0.0,1.0,97,0.00,,OVC050,0.00,VWS V14.01,2013-07-24 10:03:00,
2013-07-24 06:08:00,66.3,65.1,29.76,West,266,0.0,1.0,96,0.00,,OVC050,0.00,VWS V14.01,2013-07-24 10:08:00,
2013-07-24 06:13:00,66.4,65.2,29.76,West,266,0.0,1.0,96,0.00,,OVC050,0.00,VWS V14.01,2013-07-24 10:13:00,
2013-07-24 06:18:00,66.4,64.9,29.77,West,266,0.0,1.0,95,0.00,,OVC050,0.00,VWS V14.01,2013-07-24 10:18:00,
2013-07-24 06:23:00,66.4,65.2,29.77,West,266,0.0,1.0,96,0.00,,OVC050,0.00,VWS V14.01,2013-07-24 10:23:00,
2013-07-24 06:28:00,66.4,65.2,29.77,West,266,0.0,1.0,96,0.00,,OVC050,0.00,VWS V14.01,2013-07-24 10:28:00,
2013-07-24 06:33:00,66.5,65.3,29.77,West,266,0.0,0.0,96,0.00,,OVC050,0.00,VWS V14.01,2013-07-24 10:33:00,
2013-07-24 06:38:00,66.6,65.4,29.77,West,266,0.0,0.0,96,0.00,,OVC050,0.00,VWS V14.01,2013-07-24 10:38:00,
2013-07-24 06:43:00,66.7,65.5,29.77,West,266,0.0,0.0,96,0.00,,OVC050,0.00,VWS V14.01,2013-07-24 10:43:00,
2013-07-24 06:48:00,66.8,65.3,29.77,West,266,0.0,0.0,95,0.00,,OVC050,0.00,VWS V14.01,2013-07-24 10:48:00,
2013-07-24 06:53:00,67.0,65.5,29.78,West,266,0.0,0.0,95,0.00,,OVC050,0.00,VWS V14.01,2013-07-24 10:53:00,
2013-07-24 06:58:00,67.2,65.7,29.78,West,266,0.0,0.0,95,0.00,,OVC050,0.00,VWS V14.01,2013-07-24 10:58:00,
2013-07-24 07:03:00,67.4,65.9,29.78,West,265,0.0,3.0,95,0.00,,OVC048,0.00,VWS V14.01,2013-07-24 11:03:00,
2013-07-24 07:08:00,67.6,65.8,29.79,West,265,0.0,3.0,94,0.00,,OVC048,0.00,VWS V14.01,2013-07-24 11:08:00,
2013-07-24 07:13:00,67.8,66.0,29.79,West,265,0.0,3.0,94,0.00,,OVC048,0.00,VWS V14.01,2013-07-24 11:13:00,
2013-07-24 07:18:00,67.9,66.1,29.79,West,265,0.0,3.0,94,0.00,,OVC048,0.00,VWS V14.01,2013-07-24 11:18:00,
2013-07-24 07:23:00,68.0,66.2,29.79,West,265,0.0,3.0,94,0.00,,OVC048,0.00,VWS V14.01,2013-07-24 11:23:00,
2013-07-24 07:28:00,68.1,66.0,29.80,West,270,0.0,3.0,93,0.00,,OVC048,0.00,VWS V14.01,2013-07-24 11:28:00,
2013-07-24 07:33:00,68.2,65.5,29.80,WSW,251,3.0,4.0,91,0.00,,OVC048,0.00,VWS V14.01,2013-07-24 11:33:00,
2013-07-24 07:38:00,68.3,65.6,29.80,WSW,248,0.0,4.0,91,0.00,,OVC048,0.00,VWS V14.01,2013-07-24 11:38:00,
2013-07-24 07:43:00,68.4,65.7,29.81,North,4,0.0,4.0,91,0.00,,OVC048,0.00,VWS V14.01,2013-07-24 11:43:00,
2013-07-24 07:48:00,68.4,65.7,29.80,SSW,213,0.0,4.0,91,0.00,,OVC048,0.00,VWS V14.01,2013-07-24 11:48:00,
2013-07-24 07:53:00,68.5,65.8,29.81,SSW,213,0.0,4.0,91,0.00,,OVC048,0.00,VWS V14.01,2013-07-24 11:53:00,
2013-07-24 07:58:00,68.5,65.8,29.81,West,275,0.0,4.0,91,0.00,,OVC048,0.00,VWS V14.01,2013-07-24 11:58:00,
2013-07-24 08:03:00,68.6,65.9,29.81,West,275,0.0,0.0,91,0.00,,OVC022,0.00,VWS V14.01,2013-07-24 12:03:00,
2013-07-24 08:08:00,68.6,65.9,29.82,North,350,1.0,4.0,91,0.00,,OVC022,0.00,VWS V14.01,2013-07-24 12:08:00,
2013-07-24 08:13:00,68.6,65.9,29.82,North,351,0.0,4.0,91,0.00,,OVC022,0.00,VWS V14.01,2013-07-24 12:13:00,
2013-07-24 08:18:00,68.7,66.0,29.82,North,356,1.0,4.0,91,0.00,,OVC022,0.00,VWS V14.01,2013-07-24 12:18:00,
2013-07-24 08:23:00,68.6,65.2,29.83,NNE,13,0.0,8.0,89,0.00,,OVC022,0.00,VWS V14.01,2013-07-24 12:23:00,
2013-07-24 08:28:00,68.6,65.2,29.83,NE,55,1.0,8.0,89,0.00,,OVC022,0.00,VWS V14.01,2013-07-24 12:28:00,
2013-07-24 08:33:00,68.5,64.8,29.83,NNE,14,0.0,4.0,88,0.00,,OVC022,0.00,VWS V14.01,2013-07-24 12:33:00,
2013-07-24 08:38:00,68.5,64.5,29.84,NNW,346,0.0,7.0,87,0.00,,OVC022,0.00,VWS V14.01,2013-07-24 12:38:00,
2013-07-24 08:44:00,68.5,64.5,29.84,NNW,346,0.0,7.0,87,0.00,,OVC022,0.00,VWS V14.01,2013-07-24 12:44:00,
2013-07-24 08:48:00,68.5,64.5,29.85,WSW,248,0.0,7.0,87,0.00,,OVC022,0.00,VWS V14.01,2013-07-24 12:48:00,
2013-07-24 08:54:00,68.5,64.2,29.85,WNW,293,0.0,7.0,86,0.00,,OVC022,0.00,VWS V14.01,2013-07-24 12:54:00,
2013-07-24 08:59:00,68.5,64.2,29.85,WNW,293,0.0,7.0,86,0.00,,OVC022,0.00,VWS V14.01,2013-07-24 12:59:00,
2013-07-24 09:04:00,68.4,64.1,29.86,NNE,21,4.0,4.0,86,0.00,,OVC020,0.00,VWS V14.01,2013-07-24 13:04:00,
2013-07-24 09:09:00,68.2,63.5,29.86,NE,44,0.0,10.0,85,0.00,,OVC020,0.00,VWS V14.01,2013-07-24 13:09:00,
2013-07-24 09:14:00,68.1,63.1,29.86,NNW,339,5.0,10.0,84,0.00,,OVC020,0.00,VWS V14.01,2013-07-24 13:14:00,
2013-07-24 09:19:00,67.9,62.9,29.86,NNE,29,0.0,10.0,84,0.00,,OVC020,0.00,VWS V14.01,2013-07-24 13:19:00,
2013-07-24 09:24:00,67.8,62.8,29.86,North,10,0.0,10.0,84,0.00,,OVC020,0.00,VWS V14.01,2013-07-24 13:24:00,
2013-07-24 09:29:00,67.8,62.8,29.86,North,11,0.0,10.0,84,0.00,,OVC020,0.00,VWS V14.01,2013-07-24 13:29:00,
2013-07-24 09:34:00,67.8,62.8,29.86,NE,54,1.0,2.0,84,0.00,,OVC020,0.00,VWS V14.01,2013-07-24 13:34:00,
2013-07-24 09:39:00,68.0,62.7,29.86,NE,52,0.0,2.0,83,0.00,,OVC020,0.00,VWS V14.01,2013-07-24 13:39:00,
2013-07-24 09:44:00,68.0,62.3,29.87,North,8,0.0,4.0,82,0.00,,OVC020,0.00,VWS V14.01,2013-07-24 13:44:00,
2013-07-24 09:49:00,68.2,62.5,29.87,NNW,339,0.0,4.0,82,0.00,,OVC020,0.00,VWS V14.01,2013-07-24 13:49:00,
2013-07-24 09:54:00,68.3,62.2,29.87,NNW,341,0.0,4.0,81,0.00,,OVC020,0.00,VWS V14.01,2013-07-24 13:54:00,
2013-07-24 09:59:00,68.4,62.0,29.88,NNW,345,0.0,5.0,80,0.00,,OVC020,0.00,VWS V14.01,2013-07-24 13:59:00,
2013-07-24 10:04:00,68.4,61.6,29.88,NNW,348,0.0,5.0,79,0.00,,OVC033,0.00,VWS V14.01,2013-07-24 14:04:00,
2013-07-24 10:09:00,68.6,61.8,29.88,NNW,337,1.0,5.0,79,0.00,,OVC033,0.00,VWS V14.01,2013-07-24 14:09:00,
2013-07-24 10:14:00,68.6,61.5,29.88,NNW,339,0.0,6.0,78,0.00,,OVC033,0.00,VWS V14.01,2013-07-24 14:14:00,
2013-07-24 10:19:00,68.7,61.9,29.88,NNW,336,0.0,6.0,79,0.00,,OVC033,0.00,VWS V14.01,2013-07-24 14:19:00,
2013-07-24 10:24:00,68.9,61.4,29.88,North,10,1.0,6.0,77,0.00,,OVC033,0.00,VWS V14.01,2013-07-24 14:24:00,
2013-07-24 10:29:00,68.9,61.8,29.88,North,10,0.0,6.0,78,0.00,,OVC033,0.00,VWS V14.01,2013-07-24 14:29:00,
2013-07-24 10:34:00,69.2,61.7,29.88,West,275,0.0,1.0,77,0.00,,BKN043,0.00,VWS V14.01,2013-07-24 14:34:00,
2013-07-24 10:39:00,69.5,62.3,29.88,NNW,344,0.0,4.0,78,0.00,,BKN043,0.00,VWS V14.01,2013-07-24 14:39:00,
2013-07-24 10:44:00,69.8,61.9,29.89,NNE,14,0.0,4.0,76,0.00,,BKN043,0.00,VWS V14.01,2013-07-24 14:44:00,
2013-07-24 10:49:00,69.9,62.0,29.90,North,10,0.0,4.0,76,0.00,,BKN043,0.00,VWS V14.01,2013-07-24 14:49:00,
2013-07-24 10:54:00,70.2,61.9,29.89,North,10,2.0,4.0,75,0.00,,BKN043,0.00,VWS V14.01,2013-07-24 14:54:00,
2013-07-24 10:59:00,70.8,62.1,29.89,NNE,13,0.0,4.0,74,0.00,,BKN043,0.00,VWS V14.01,2013-07-24 14:59:00,
2013-07-24 11:04:00,71.5,62.4,29.89,North,3,1.0,7.0,73,0.00,,OVC043,0.00,VWS V14.01,2013-07-24 15:04:00,
2013-07-24 11:09:00,71.7,61.8,29.89,North,354,0.0,8.0,71,0.00,,OVC043,0.00,VWS V14.01,2013-07-24 15:09:00,
2013-07-24 11:14:00,72.2,62.7,29.89,North,354,0.0,8.0,72,0.00,,OVC043,0.00,VWS V14.01,2013-07-24 15:14:00,
2013-07-24 11:19:00,72.7,63.2,29.89,NNW,347,4.0,8.0,72,0.00,,OVC043,0.00,VWS V14.01,2013-07-24 15:19:00,
2013-07-24 11:24:00,73.0,62.7,29.89,North,2,4.0,8.0,70,0.00,,OVC043,0.00,VWS V14.01,2013-07-24 15:24:00,
2013-07-24 11:29:00,73.2,61.6,29.89,NNE,30,1.0,8.0,67,0.00,,OVC043,0.00,VWS V14.01,2013-07-24 15:29:00,
2013-07-24 11:34:00,73.9,61.8,29.90,NE,37,5.0,8.0,66,0.00,,OVC043,0.00,VWS V14.01,2013-07-24 15:34:00,
2013-07-24 11:39:00,73.9,61.8,29.90,NNE,14,0.0,8.0,66,0.00,,OVC043,0.00,VWS V14.01,2013-07-24 15:39:00,
2013-07-24 11:44:00,74.4,61.9,29.90,WSW,240,4.0,8.0,65,0.00,,OVC043,0.00,VWS V14.01,2013-07-24 15:44:00,
2013-07-24 11:49:00,74.8,62.7,29.90,NNW,339,0.0,8.0,66,0.00,,OVC043,0.00,VWS V14.01,2013-07-24 15:49:00,
2013-07-24 11:54:00,74.9,62.3,29.90,North,5,0.0,8.0,65,0.00,,OVC043,0.00,VWS V14.01,2013-07-24 15:54:00,
2013-07-24 11:59:00,74.9,62.3,29.90,North,6,0.0,8.0,65,0.00,,OVC043,0.00,VWS V14.01,2013-07-24 15:59:00,
2013-07-24 12:04:00,75.1,62.5,29.89,West,268,6.0,6.0,65,0.00,,BKN045,0.00,VWS V14.01,2013-07-24 16:04:00,
2013-07-24 12:09:00,75.2,62.2,29.89,North,7,5.0,8.0,64,0.00,,BKN045,0.00,VWS V14.01,2013-07-24 16:09:00,
2013-07-24 12:14:00,75.3,61.8,29.89,North,355,4.0,8.0,63,0.00,,BKN045,0.00,VWS V14.01,2013-07-24 16:14:00,
2013-07-24 12:19:00,75.4,62.4,29.89,North,9,3.0,8.0,64,0.00,,BKN045,0.00,VWS V14.01,2013-07-24 16:19:00,
2013-07-24 12:24:00,75.8,62.3,29.89,NW,324,2.0,8.0,63,0.00,,BKN045,0.00,VWS V14.01,2013-07-24 16:24:00,
2013-07-24 12:29:00,76.5,63.0,29.89,WSW,246,5.0,9.0,63,0.00,,BKN045,0.00,VWS V14.01,2013-07-24 16:29:00,
2013-07-24 12:35:00,77.1,62.6,29.89,WSW,245,5.0,6.0,61,0.00,,BKN045,0.00,VWS V14.01,2013-07-24 16:35:00,
2013-07-24 12:40:00,76.9,62.9,29.89,NE,42,0.0,7.0,62,0.00,,BKN045,0.00,VWS V14.01,2013-07-24 16:40:00,
2013-07-24 12:45:00,76.9,62.4,29.88,North,357,4.0,7.0,61,0.00,,BKN045,0.00,VWS V14.01,2013-07-24 16:45:00,
2013-07-24 12:50:00,77.3,63.3,29.88,North,11,3.0,7.0,62,0.00,,BKN045,0.00,VWS V14.01,2013-07-24 16:50:00,
2013-07-24 12:55:00,77.6,63.6,29.88,NE,45,0.0,8.0,62,0.00,,BKN045,0.00,VWS V14.01,2013-07-24 16:55:00,
2013-07-24 13:00:00,78.3,62.8,29.88,NNW,347,6.0,8.0,59,0.00,,BKN045,0.00,VWS V14.01,2013-07-24 17:00:00,
2013-07-24 13:05:00,78.8,63.8,29.88,WSW,237,3.0,7.0,60,0.00,,BKN050,0.00,VWS V14.01,2013-07-24 17:05:00,
2013-07-24 13:10:00,79.3,62.3,29.88,WSW,246,6.0,11.0,56,0.00,,BKN050,0.00,VWS V14.01,2013-07-24 17:10:00,
2013-07-24 13:15:00,79.9,63.8,29.88,NW,312,0.0,11.0,58,0.00,,BKN050,0.00,VWS V14.01,2013-07-24 17:15:00,
2013-07-24 13:20:00,80.0,62.4,29.88,NNW,330,7.0,11.0,55,0.00,,BKN050,0.00,VWS V14.01,2013-07-24 17:20:00,
2013-07-24 13:25:00,79.0,61.5,29.88,NNE,28,1.0,11.0,55,0.00,,BKN050,0.00,VWS V14.01,2013-07-24 17:25:00,
2013-07-24 13:30:00,78.9,62.4,29.88,West,259,2.0,11.0,57,0.00,,BKN050,0.00,VWS V14.01,2013-07-24 17:30:00,
2013-07-24 13:35:00,79.0,62.0,29.89,NNE,15,9.0,11.0,56,0.00,,BKN050,0.00,VWS V14.01,2013-07-24 17:35:00,
2013-07-24 13:40:00,78.5,62.0,29.89,North,351,5.0,11.0,57,0.00,,BKN050,0.00,VWS V14.01,2013-07-24 17:40:00,
2013-07-24 13:45:00,78.3,62.3,29.89,North,359,2.0,11.0,58,0.00,,BKN050,0.00,VWS V14.01,2013-07-24 17:45:00,
2013-07-24 13:50:00,78.9,63.4,29.88,NNW,348,0.0,11.0,59,0.00,,BKN050,0.00,VWS V14.01,2013-07-24 17:50:00,
2013-07-24 13:55:00,79.1,62.1,29.89,North,7,5.0,11.0,56,0.00,,BKN050,0.00,VWS V14.01,2013-07-24 17:55:00,
2013-07-24 14:00:00,78.3,61.8,29.89,North,360,2.0,4.0,57,0.00,,BKN050,0.00,VWS V14.01,2013-07-24 18:00:00,
2013-07-24 14:05:00,77.9,62.4,29.89,WNW,286,2.0,11.0,59,0.00,,SCT050,0.00,VWS V14.01,2013-07-24 18:05:00,
2013-07-24 14:10:00,77.6,62.2,29.89,NNW,343,4.0,11.0,59,0.00,,SCT050,0.00,VWS V14.01,2013-07-24 18:10:00,
2013-07-24 14:15:00,77.5,62.1,29.89,North,355,5.0,11.0,59,0.00,,SCT050,0.00,VWS V14.01,2013-07-24 18:15:00,
2013-07-24 14:20:00,77.4,61.5,29.89,North,357,6.0,13.0,58,0.00,,SCT050,0.00,VWS V14.01,2013-07-24 18:20:00,
2013-07-24 14:25:00,77.1,61.7,29.89,North,352,5.0,13.0,59,0.00,,SCT050,0.00,VWS V14.01,2013-07-24 18:25:00,
2013-07-24 14:30:00,77.1,62.6,29.89,NNE,15,0.0,5.0,61,0.00,,SCT050,0.00,VWS V14.01,2013-07-24 18:30:00,
2013-07-24 14:35:00,77.6,61.7,29.89,NNW,341,10.0,13.0,58,0.00,,SCT050,0.00,VWS V14.01,2013-07-24 18:35:00,
2013-07-24 14:40:00,77.3,61.4,29.89,NE,35,5.0,13.0,58,0.00,,SCT050,0.00,VWS V14.01,2013-07-24 18:40:00,
2013-07-24 14:45:00,77.2,60.8,29.89,North,358,7.0,13.0,57,0.00,,SCT050,0.00,VWS V14.01,2013-07-24 18:45:00,
2013-07-24 14:50:00,77.1,60.2,29.89,North,360,5.0,14.0,56,0.00,,SCT050,0.00,VWS V14.01,2013-07-24 18:50:00,
2013-07-24 14:55:00,77.3,60.9,29.89,North,5,10.0,14.0,57,0.00,,SCT050,0.00,VWS V14.01,2013-07-24 18:55:00,
2013-07-24 15:00:00,77.4,61.5,29.89,North,357,6.0,9.0,58,0.00,,SCT050,0.00,VWS V14.01,2013-07-24 19:00:00,
2013-07-24 15:05:00,77.7,61.8,29.89,NW,322,0.0,11.0,58,0.00,,BKN060,0.00,VWS V14.01,2013-07-24 19:05:00,
2013-07-24 15:10:00,78.3,61.8,29.89,North,9,5.0,11.0,57,0.00,,BKN060,0.00,VWS V14.01,2013-07-24 19:10:00,
2013-07-24 15:15:00,78.7,62.2,29.90,NNW,345,3.0,11.0,57,0.00,,BKN060,0.00,VWS V14.01,2013-07-24 19:15:00,
2013-07-24 15:20:00,78.5,62.0,29.90,North,357,3.0,11.0,57,0.00,,BKN060,0.00,VWS V14.01,2013-07-24 19:20:00,
2013-07-24 15:25:00,78.6,61.6,29.90,NNE,22,8.0,11.0,56,0.00,,BKN060,0.00,VWS V14.01,2013-07-24 19:25:00,
2013-07-24 15:30:00,78.3,60.8,29.90,NNW,337,4.0,6.0,55,0.00,,BKN060,0.00,VWS V14.01,2013-07-24 19:30:00,
2013-07-24 15:35:00,78.0,60.0,29.90,NNW,335,0.0,9.0,54,0.00,,BKN060,0.00,VWS V14.01,2013-07-24 19:35:00,
2013-07-24 15:40:00,77.7,60.3,29.90,North,3,5.0,9.0,55,0.00,,BKN060,0.00,VWS V14.01,2013-07-24 19:40:00,
2013-07-24 15:45:00,77.6,60.7,29.90,NNE,16,8.0,9.0,56,0.00,,BKN060,0.00,VWS V14.01,2013-07-24 19:45:00,
2013-07-24 15:50:00,77.5,61.1,29.90,NNW,348,3.0,9.0,57,0.00,,BKN060,0.00,VWS V14.01,2013-07-24 19:50:00,
2013-07-24 15:55:00,77.2,59.8,29.91,North,5,1.0,11.0,55,0.00,,BKN060,0.00,VWS V14.01,2013-07-24 19:55:00,
2013-07-24 16:00:00,76.9,60.0,29.91,North,10,4.0,7.0,56,0.00,,BKN060,0.00,VWS V14.01,2013-07-24 20:00:00,
2013-07-24 16:05:00,76.9,60.5,29.91,WNW,282,0.0,7.0,57,0.00,,FEW060,0.00,VWS V14.01,2013-07-24 20:05:00,
2013-07-24 16:11:00,77.1,61.2,29.91,North,351,7.0,9.0,58,0.00,,FEW060,0.00,VWS V14.01,2013-07-24 20:11:00,
2013-07-24 16:16:00,77.2,60.3,29.91,NNW,346,4.0,12.0,56,0.00,,FEW060,0.00,VWS V14.01,2013-07-24 20:16:00,
2013-07-24 16:21:00,77.2,60.3,29.91,NNW,337,7.0,12.0,56,0.00,,FEW060,0.00,VWS V14.01,2013-07-24 20:21:00,
2013-07-24 16:26:00,77.2,60.3,29.91,NNW,340,7.0,12.0,56,0.00,,FEW060,0.00,VWS V14.01,2013-07-24 20:26:00,
2013-07-24 16:31:00,77.0,60.1,29.91,NNE,33,0.0,3.0,56,0.00,,FEW060,0.00,VWS V14.01,2013-07-24 20:31:00,
2013-07-24 16:36:00,76.8,60.4,29.91,NNW,344,7.0,10.0,57,0.00,,FEW060,0.00,VWS V14.01,2013-07-24 20:36:00,
2013-07-24 16:41:00,76.6,59.8,29.91,North,352,6.0,10.0,56,0.00,,FEW060,0.00,VWS V14.01,2013-07-24 20:41:00,
2013-07-24 16:46:00,76.7,59.8,29.91,NNE,17,3.0,10.0,56,0.00,,FEW060,0.00,VWS V14.01,2013-07-24 20:46:00,
2013-07-24 16:51:00,77.0,59.1,29.91,NNE,28,5.0,12.0,54,0.00,,FEW060,0.00,VWS V14.01,2013-07-24 20:51:00,
2013-07-24 16:56:00,76.8,59.4,29.92,NNE,30,3.0,12.0,55,0.00,,FEW060,0.00,VWS V14.01,2013-07-24 20:56:00,
2013-07-24 17:01:00,76.0,59.7,29.92,North,10,2.0,3.0,57,0.00,,FEW060,0.00,VWS V14.01,2013-07-24 21:01:00,
2013-07-24 17:06:00,76.1,59.8,29.92,NNW,346,3.0,9.0,57,0.00,,BKN055,0.00,VWS V14.01,2013-07-24 21:06:00,
2013-07-24 17:11:00,76.2,59.4,29.92,North,359,2.0,11.0,56,0.00,,BKN055,0.00,VWS V14.01,2013-07-24 21:11:00,
2013-07-24 17:16:00,76.2,59.9,29.92,NNW,330,6.0,12.0,57,0.00,,BKN055,0.00,VWS V14.01,2013-07-24 21:16:00,
2013-07-24 17:21:00,76.2,60.4,29.92,North,359,7.0,12.0,58,0.00,,BKN055,0.00,VWS V14.01,2013-07-24 21:21:00,
2013-07-24 17:26:00,76.1,60.3,29.92,North,351,3.0,12.0,58,0.00,,BKN055,0.00,VWS V14.01,2013-07-24 21:26:00,
2013-07-24 17:31:00,76.5,60.2,29.92,NNW,347,4.0,7.0,57,0.00,,BKN055,0.00,VWS V14.01,2013-07-24 21:31:00,
2013-07-24 17:36:00,77.1,60.7,29.92,North,352,5.0,7.0,57,0.00,,BKN055,0.00,VWS V14.01,2013-07-24 21:36:00,
2013-07-24 17:41:00,77.2,59.3,29.92,ENE,69,3.0,7.0,54,0.00,,BKN055,0.00,VWS V14.01,2013-07-24 21:41:00,
2013-07-24 17:46:00,77.3,59.4,29.92,North,360,2.0,8.0,54,0.00,,BKN055,0.00,VWS V14.01,2013-07-24 21:46:00,
2013-07-24 17:51:00,77.2,59.8,29.92,NE,53,5.0,8.0,55,0.00,,BKN055,0.00,VWS V14.01,2013-07-24 21:51:00,
2013-07-24 17:56:00,77.4,59.5,29.92,NNW,346,8.0,8.0,54,0.00,,BKN055,0.00,VWS V14.01,2013-07-24 21:56:00,
2013-07-24 18:01:00,77.1,59.2,29.93,NNE,27,2.0,5.0,54,0.00,,BKN055,0.00,VWS V14.01,2013-07-24 22:01:00,
2013-07-24 18:06:00,77.2,59.3,29.93,NNW,338,3.0,8.0,54,0.00,,CLR,0.00,VWS V14.01,2013-07-24 22:06:00,
2013-07-24 18:11:00,76.8,58.9,29.93,NNW,341,0.0,8.0,54,0.00,,CLR,0.00,VWS V14.01,2013-07-24 22:11:00,
2013-07-24 18:16:00,76.7,58.8,29.93,North,1,3.0,10.0,54,0.00,,CLR,0.00,VWS V14.01,2013-07-24 22:16:00,
2013-07-24 18:21:00,76.5,58.6,29.93,NE,42,2.0,10.0,54,0.00,,CLR,0.00,VWS V14.01,2013-07-24 22:21:00,
2013-07-24 18:26:00,76.4,58.5,29.93,NNE,33,3.0,10.0,54,0.00,,CLR,0.00,VWS V14.01,2013-07-24 22:26:00,
2013-07-24 18:31:00,76.1,58.3,29.93,NW,310,2.0,6.0,54,0.00,,CLR,0.00,VWS V14.01,2013-07-24 22:31:00,
2013-07-24 18:36:00,76.3,57.9,29.93,North,351,5.0,7.0,53,0.00,,CLR,0.00,VWS V14.01,2013-07-24 22:36:00,
2013-07-24 18:41:00,75.9,58.1,29.93,NNE,17,3.0,8.0,54,0.00,,CLR,0.00,VWS V14.01,2013-07-24 22:41:00,
2013-07-24 18:46:00,75.9,58.6,29.94,NNW,338,0.0,8.0,55,0.00,,CLR,0.00,VWS V14.01,2013-07-24 22:46:00,
2013-07-24 18:51:00,76.3,58.5,29.94,NE,56,0.0,8.0,54,0.00,,CLR,0.00,VWS V14.01,2013-07-24 22:51:00,
2013-07-24 18:56:00,76.3,58.5,29.94,NE,45,0.0,8.0,54,0.00,,CLR,0.00,VWS V14.01,2013-07-24 22:56:00,
2013-07-24 19:01:00,75.6,58.3,29.94,North,11,4.0,5.0,55,0.00,,BKN050,0.00,VWS V14.01,2013-07-24 23:01:00,
2013-07-24 19:07:00,74.4,57.7,29.94,NE,47,4.0,6.0,56,0.00,,BKN050,0.00,VWS V14.01,2013-07-24 23:07:00,
2013-07-24 19:12:00,73.8,58.1,29.95,NE,55,0.0,6.0,58,0.00,,BKN050,0.00,VWS V14.01,2013-07-24 23:12:00,
2013-07-24 19:17:00,73.4,58.2,29.95,NE,50,5.0,11.0,59,0.00,,BKN050,0.00,VWS V14.01,2013-07-24 23:17:00,
2013-07-24 19:22:00,73.1,57.9,29.95,NE,41,5.0,11.0,59,0.00,,BKN050,0.00,VWS V14.01,2013-07-24 23:22:00,
2013-07-24 19:27:00,72.4,57.8,29.95,NNE,25,4.0,11.0,60,0.00,,BKN050,0.00,VWS V14.01,2013-07-24 23:27:00,
2013-07-24 19:32:00,71.7,57.5,29.96,NE,45,2.0,4.0,61,0.00,,BKN050,0.00,VWS V14.01,2013-07-24 23:32:00,
2013-07-24 19:37:00,71.3,57.6,29.96,North,6,8.0,9.0,62,0.00,,BKN050,0.00,VWS V14.01,2013-07-24 23:37:00,
2013-07-24 19:42:00,70.7,57.1,29.96,NNE,24,4.0,9.0,62,0.00,,BKN050,0.00,VWS V14.01,2013-07-24 23:42:00,
2013-07-24 19:47:00,70.3,57.1,29.96,NNE,14,0.0,11.0,63,0.00,,BKN050,0.00,VWS V14.01,2013-07-24 23:47:00,
2013-07-24 19:52:00,69.9,57.2,29.96,NE,45,0.0,11.0,64,0.00,,BKN050,0.00,VWS V14.01,2013-07-24 23:52:00,
2013-07-24 19:57:00,69.6,56.9,29.96,ESE,115,0.0,11.0,64,0.00,,BKN050,0.00,VWS V14.01,2013-07-24 23:57:00,
2013-07-24 20:02:00,69.2,57.0,29.97,ESE,115,0.0,0.0,65,0.00,,CLR,0.00,VWS V14.01,2013-07-25 00:02:00,
2013-07-24 20:07:00,68.8,56.6,29.97,NE,38,0.0,6.0,65,0.00,,CLR,0.00,VWS V14.01,2013-07-25 00:07:00,
2013-07-24 20:12:00,68.4,56.6,29.98,NE,37,0.0,6.0,66,0.00,,CLR,0.00,VWS V14.01,2013-07-25 00:12:00,
2013-07-24 20:17:00,67.9,56.1,29.98,NE,50,3.0,6.0,66,0.00,,CLR,0.00,VWS V14.01,2013-07-25 00:17:00,
2013-07-24 20:22:00,67.6,56.3,29.98,NE,43,0.0,6.0,67,0.00,,CLR,0.00,VWS V14.01,2013-07-25 00:22:00,
2013-07-24 20:27:00,67.2,55.5,29.98,NE,45,3.0,6.0,66,0.00,,CLR,0.00,VWS V14.01,2013-07-25 00:27:00,
2013-07-24 20:32:00,66.9,55.6,29.98,ENE,59,4.0,5.0,67,0.00,,CLR,0.00,VWS V14.01,2013-07-25 00:32:00,
2013-07-24 20:37:00,66.6,55.3,29.98,NNE,28,0.0,7.0,67,0.00,,CLR,0.00,VWS V14.01,2013-07-25 00:37:00,
2013-07-24 20:42:00,66.4,55.1,29.98,NE,46,4.0,7.0,67,0.00,,CLR,0.00,VWS V14.01,2013-07-25 00:42:00,
2013-07-24 20:47:00,66.1,55.2,29.99,NE,45,0.0,7.0,68,0.00,,CLR,0.00,VWS V14.01,2013-07-25 00:47:00,
2013-07-24 20:52:00,65.8,55.0,29.99,NE,45,3.0,8.0,68,0.00,,CLR,0.00,VWS V14.01,2013-07-25 00:52:00,
2013-07-24 20:57:00,65.6,54.8,29.99,NE,45,1.0,8.0,68,0.00,,CLR,0.00,VWS V14.01,2013-07-25 00:57:00,
2013-07-24 21:02:00,65.3,54.9,30.00,NE,45,0.0,0.0,69,0.00,,CLR,0.00,VWS V14.01,2013-07-25 01:02:00,
2013-07-24 21:07:00,65.0,55.4,30.00,NE,45,0.0,1.0,71,0.00,,CLR,0.00,VWS V14.01,2013-07-25 01:07:00,
2013-07-24 21:12:00,64.7,55.5,30.00,NE,45,0.0,3.0,72,0.00,,CLR,0.00,VWS V14.01,2013-07-25 01:12:00,
2013-07-24 21:17:00,64.4,55.2,30.00,NE,45,0.0,5.0,72,0.00,,CLR,0.00,VWS V14.01,2013-07-25 01:17:00,
2013-07-24 21:22:00,64.1,54.9,30.01,NE,49,5.0,9.0,72,0.00,,CLR,0.00,VWS V14.01,2013-07-25 01:22:00,
2013-07-24 21:27:00,63.9,54.7,30.01,NE,45,0.0,9.0,72,0.00,,CLR,0.00,VWS V14.01,2013-07-25 01:27:00,
2013-07-24 21:32:00,63.6,54.4,30.01,NE,46,2.0,5.0,72,0.00,,CLR,0.00,VWS V14.01,2013-07-25 01:32:00,
2013-07-24 21:37:00,63.4,54.6,30.01,NE,45,3.0,5.0,73,0.00,,CLR,0.00,VWS V14.01,2013-07-25 01:37:00,
2013-07-24 21:42:00,63.2,54.4,30.02,NE,45,0.0,5.0,73,0.00,,CLR,0.00,VWS V14.01,2013-07-25 01:42:00,
2013-07-24 21:47:00,63.0,54.6,30.02,NE,45,0.0,5.0,74,0.00,,CLR,0.00,VWS V14.01,2013-07-25 01:47:00,
2013-07-24 21:52:00,62.7,54.7,30.02,NE,45,2.0,5.0,75,0.00,,CLR,0.00,VWS V14.01,2013-07-25 01:52:00,
2013-07-24 21:57:00,62.5,54.5,30.02,NNE,24,0.0,5.0,75,0.00,,CLR,0.00,VWS V14.01,2013-07-25 01:57:00,
2013-07-24 22:02:00,62.2,54.2,30.03,NE,43,3.0,6.0,75,0.00,,CLR,0.00,VWS V14.01,2013-07-25 02:02:00,
2013-07-24 22:07:00,62.1,53.7,30.03,NE,37,1.0,6.0,74,0.00,,CLR,0.00,VWS V14.01,2013-07-25 02:07:00,
2013-07-24 22:12:00,62.0,53.6,30.03,ENE,65,0.0,6.0,74,0.00,,CLR,0.00,VWS V14.01,2013-07-25 02:12:00,
2013-07-24 22:13:00,62.0,54.0,30.03,ENE,58,2.0,6.0,75,0.00,,CLR,0.00,VWS V14.01,2013-07-25 02:13:00,
2013-07-24 22:18:00,61.8,53.4,30.03,NE,45,2.0,6.0,74,0.00,,CLR,0.00,VWS V14.01,2013-07-25 02:18:00,
2013-07-24 22:23:00,61.7,53.3,30.03,NE,45,0.0,6.0,74,0.00,,CLR,0.00,VWS V14.01,2013-07-25 02:23:00,
2013-07-24 22:28:00,61.6,53.2,30.03,NE,36,0.0,6.0,74,0.00,,CLR,0.00,VWS V14.01,2013-07-25 02:28:00,
2013-07-24 22:33:00,61.4,53.0,30.03,NNE,33,2.0,4.0,74,0.00,,CLR,0.00,VWS V14.01,2013-07-25 02:33:00,
2013-07-24 22:38:00,61.2,53.2,30.04,NE,45,0.0,8.0,75,0.00,,CLR,0.00,VWS V14.01,2013-07-25 02:38:00,
2013-07-24 22:43:00,61.1,53.1,30.04,ESE,115,0.0,8.0,75,0.00,,CLR,0.00,VWS V14.01,2013-07-25 02:43:00,
2013-07-24 22:48:00,60.9,52.9,30.04,NE,50,0.0,8.0,75,0.00,,CLR,0.00,VWS V14.01,2013-07-25 02:48:00,
2013-07-24 22:53:00,60.7,53.1,30.04,NNW,337,0.0,8.0,76,0.00,,CLR,0.00,VWS V14.01,2013-07-25 02:53:00,
2013-07-24 22:58:00,60.5,52.9,30.04,NNE,29,0.0,8.0,76,0.00,,CLR,0.00,VWS V14.01,2013-07-25 02:58:00,
2013-07-24 23:03:00,60.3,53.1,30.05,NNE,29,0.0,0.0,77,0.00,,CLR,0.00,VWS V14.01,2013-07-25 03:03:00,
2013-07-24 23:08:00,60.0,52.8,30.05,NNE,29,0.0,0.0,77,0.00,,CLR,0.00,VWS V14.01,2013-07-25 03:08:00,
2013-07-24 23:13:00,59.7,52.5,30.05,NNE,29,0.0,0.0,77,0.00,,CLR,0.00,VWS V14.01,2013-07-25 03:13:00,
2013-07-24 23:18:00,59.3,52.5,30.05,NNE,29,0.0,0.0,78,0.00,,CLR,0.00,VWS V14.01,2013-07-25 03:18:00,
2013-07-24 23:23:00,59.0,52.5,30.05,NNE,29,0.0,0.0,79,0.00,,CLR,0.00,VWS V14.01,2013-07-25 03:23:00,
2013-07-24 23:28:00,58.7,52.6,30.05,NNE,24,2.0,2.0,80,0.00,,CLR,0.00,VWS V14.01,2013-07-25 03:28:00,
2013-07-24 23:33:00,58.5,52.4,30.05,NNE,25,0.0,1.0,80,0.00,,CLR,0.00,VWS V14.01,2013-07-25 03:33:00,
2013-07-24 23:38:00,58.3,52.2,30.05,NNE,25,0.0,1.0,80,0.00,,CLR,0.00,VWS V14.01,2013-07-25 03:38:00,
2013-07-24 23:43:00,58.1,52.0,30.05,NNE,25,0.0,1.0,80,0.00,,CLR,0.00,VWS V14.01,2013-07-25 03:43:00,
2013-07-24 23:48:00,57.9,52.1,30.05,NNE,25,0.0,1.0,81,0.00,,CLR,0.00,VWS V14.01,2013-07-25 03:48:00,
2013-07-24 23:53:00,57.6,52.2,30.06,NNE,25,0.0,1.0,82,0.00,,CLR,0.00,VWS V14.01,2013-07-25 03:53:00,
2013-07-24 23:59:00,57.4,52.0,30.06,ENE,61,0.0,3.0,82,0.00,,CLR,0.00,VWS V14.01,2013-07-25 03:59:00,